• Join FlightAware (Why Join?)
  • Login
  • US Flag 
Gobble Gobble! 
05:05AM EST


 

Airport Tracker/Info


-or-


 

Live Flight TrackerFlight Track Log ✈ N758FR ✈ 14-Jul-2013 ✈ KBVY - KHWV

Flight Track Log - Related Links

Times and Time Zones

All times are in EDT time to prevent confusion due to time zone crossing. See the N758FR flight status page for this flight to view local times or setup timezone preferences in your user account.

Time Position Orientation Groundspeed Altitude Reporting Facility
EDT Latitude Longitude Course Direction KTS MPH feet Rate Location/Type
02:50PM 42.5333 -70.9833 220° Southwest 90 104 2,800  Level KA90
02:51PM 42.5167 -70.9833 180° South 91 105 3,400 540 Climbing KA90
02:52PM 42.4833 -70.9833 180° South 89 102 3,900 480 Climbing KA90
02:54PM 42.4667 -71.0000 216° Southwest 86 99 4,500 300 Climbing KA90
02:55PM 42.4333 -71.0000 180° South 119 137 4,600 60 Climbing KA90
02:56PM 42.3710 -71.1599 220° Southwest  Level Estimated
02:56PM 42.4000 -71.0000 180° South 118 136 4,700  Level KA90
02:57PM 42.3667 -70.9833 160° South 126 145 4,500 -180 Descending KA90
02:58PM 42.3333 -70.9833 180° South 130 150 4,400  Descending KA90
02:59PM 42.3000 -70.9833 180° South 124 143 4,500  Climbing KA90
03:00PM 42.2667 -70.9833 180° South 122 140 4,500 -60 Level KA90
03:01PM 42.2333 -71.0000 200° South 115 132 4,400  Descending KA90
03:03PM 42.1733 -71.0731 222° Southwest 110 127 4,600 60 Climbing Boston Center
03:04PM 42.1569 -71.1014 232° Southwest 121 139 4,600  Level Boston Center
03:05PM 42.1469 -71.1436 252° West 123 142 4,600  Level Boston Center
03:06PM 42.1392 -71.1858 256° West 107 123 4,600  Level Boston Center
03:07PM 42.1311 -71.2194 252° West 113 130 4,700  Climbing Boston Center
03:08PM 42.1025 -71.2564 224° Southwest 126 145 4,600 -120 Descending Boston Center
03:09PM 42.0778 -71.2850 221° Southwest 121 139 4,500 -60 Descending Boston Center
03:10PM 42.0508 -71.3133 218° Southwest 118 136 4,500  Level Boston Center
03:11PM 42.0261 -71.3389 218° Southwest 117 135 4,500  Level Boston Center
03:12PM 42.0014 -71.3644 218° Southwest 114 131 4,500  Level Boston Center
03:13PM 41.9706 -71.3958 217° Southwest 122 140 4,600  Climbing Boston Center
03:14PM 41.9497 -71.4239 225° Southwest 113 130 4,600  Level Boston Center
03:15PM 41.9272 -71.4494 220° Southwest 117 135 4,600  Level Boston Center
03:16PM 41.9044 -71.4778 223° Southwest 113 130 4,700  Climbing Boston Center
03:17PM 41.8817 -71.5086 225° Southwest 114 131 4,600 -120 Descending Boston Center
03:18PM 41.8550 -71.5369 218° Southwest 116 133 4,500 -60 Descending Boston Center
03:19PM 41.8303 -71.5681 223° Southwest 119 137 4,500  Level Boston Center
03:20PM 41.8053 -71.5961 220° Southwest 114 131 4,500  Level Boston Center
03:21PM 41.7806 -71.6272 223° Southwest 118 136 4,500  Level Boston Center
03:22PM 41.7619 -71.6581 231° Southwest 109 125 4,600  Climbing Boston Center
03:23PM 41.7394 -71.6889 226° Southwest 113 130 4,500 -120 Descending Boston Center
03:24PM 41.7250 -71.7225 240° Southwest 105 121 4,400 -60 Descending Boston Center
03:25PM 41.7086 -71.7561 237° Southwest 116 133 4,400  Level Boston Center
03:26PM 41.6858 -71.7897 228° Southwest 111 128 4,500  Climbing Boston Center
03:27PM 41.6692 -71.8231 236° Southwest 112 129 4,500  Level Boston Center
03:28PM 41.6444 -71.8511 220° Southwest 115 132 4,500  Level Boston Center
03:29PM 41.6281 -71.8875 239° Southwest 111 128 4,500  Level Boston Center
03:30PM 41.6072 -71.9181 228° Southwest 112 129 4,500 -60 Level Boston Center
03:31PM 41.5886 -71.9572 238° Southwest 115 132 4,400  Descending Boston Center
03:32PM 41.5700 -71.9878 231° Southwest 113 130 4,500  Climbing Boston Center
03:33PM 41.5514 -72.0183 231° Southwest 108 124 4,500 -60 Level Boston Center
03:34PM 41.5306 -72.0519 230° Southwest 115 132 4,400 -60 Descending Boston Center
03:35PM 41.5036 -72.0825 220° Southwest 122 140 4,400  Level Boston Center
03:36PM 41.4725 -72.0994 202° Southwest 128 147 4,400  Level Boston Center
03:37PM 41.4433 -72.1161 203° Southwest 121 139 4,400 60 Level Boston Center
03:38PM 41.4183 -72.1411 217° Southwest 107 123 4,600 60 Climbing Boston Center
03:39PM 41.3933 -72.1689 220° Southwest 115 132 4,600  Level Boston Center
03:40PM 41.3706 -72.1994 225° Southwest 113 130 4,600  Level Boston Center
03:41PM 41.3478 -72.2300 225° Southwest 117 135 4,600 -60 Level Boston Center
03:44PM 41.3000 -72.3000 228° Southwest 130 150 4,500 -60 Descending New York TRACON
03:45PM 41.2667 -72.3167 201° Southwest 116 133 4,400 -60 Descending New York TRACON
03:46PM 41.2500 -72.3500 236° Southwest 118 136 4,400  Level New York TRACON
03:47PM 41.2167 -72.3667 201° Southwest 118 136 4,500  Climbing New York TRACON
03:48PM 41.2000 -72.4000 236° Southwest 111 128 4,500 3,840 Level New York TRACON
03:49PM 41.1667 -72.4167 201° Southwest 116 133 12,200  Climbing New York TRACON
03:50PM 41.1500 -72.4500 236° Southwest 117 135 4,600 -3,840 Descending New York TRACON
03:51PM 41.1167 -72.4833 217° Southwest 111 128 4,600  Level New York TRACON
03:52PM 41.1000 -72.5000 217° Southwest 118 136 4,600  Level New York TRACON
03:53PM 41.0667 -72.5333 217° Southwest 112 129 4,600  Level New York TRACON
03:54PM 41.0500 -72.5500 217° Southwest 111 128 4,600  Level New York TRACON
03:55PM 41.0333 -72.5833 236° Southwest 110 127 4,600 -120 Level New York TRACON
03:56PM 41.0167 -72.6167 236° Southwest 114 131 4,400 -360 Descending New York TRACON
03:57PM 41.0000 -72.6500 236° Southwest 115 132 4,000 -480 Descending New York TRACON
03:58PM 40.9667 -72.6833 217° Southwest 119 137 3,600 -480 Descending New York TRACON
03:59PM 40.9500 -72.7167 237° Southwest 125 144 3,000 -600 Descending New York TRACON